Darstellungsparameter: Aktuell verwendete Einstellungen:
Skalierung der Graphiken ... ?
xyx+y,   Skalierungsfaktor:      Skalierung: Modus: x, Faktor: 1
Darstellungszeitraum ... ?
Vom - - bis: - -   Zeitraum: 03.10.2010 - 03.10.2010
Min/Max/Avg-Anzeige ... ?
Zeige MMA aktuell
Zeige MMA Monat
Zeige MMA alles
Zeige --A aktuell
Zeige --A Monat
Zeige --A alles
Keine MMA-Anzeige
MMA:
Minimum Maximum Average (ber die Originaldaten)
MMA-Basis: 03.10.2010 - 03.10.2010
Quicknavigation für Darstellung... ?
Tage:      1T, 2T, 3T, 5T -1T -2T -3T -5T +1T +2T +3T +5T
Wochen: 1W, 2W, 3W -1W -2W -3W +1W +2W +3W
Monate: 1M, 3M, 6M -1M -3M -6M +1M +3M +6M
Jahre:    1J, 3J, 5J, 10J -1J -3J -5J -10J +1J +3J +5J +10J
Nutze für die Darstellung ... ?
Originaldaten oder Mittelwerte auf ...
Stundenbasis Tagesbasis Wochenbasis
Monatsbasis Jahresbasis      Datenbasis: Original-Daten
Darstellen als:
Statistik (Auto) Statistik J:M      Darstellung:
Zur Graphik,    zurück zur Übersicht aller Sensoren.
 
Tabellarische Datenbersicht: ?
 
Sensor: Nr:Datum:Temp:Abs-Feuchte:Windchill:Wind:
Aussen-T/F 1 03-10-2010 00:05:03 14.6 C 11.14 g/m*3 14.6 C 0 km/h
2 03-10-2010 00:17:03 14.4 C 11 g/m*3 14.4 C 0 km/h
3 03-10-2010 00:29:03 14.3 C 10.93 g/m*3 14.3 C 0 km/h
4 03-10-2010 00:41:03 14.4 C 11.13 g/m*3 14.4 C 0 km/h
5 03-10-2010 00:53:03 14.5 C 11.19 g/m*3 14.5 C 0 km/h
6 03-10-2010 01:05:03 14.5 C 11.07 g/m*3 14.5 C 0 km/h
7 03-10-2010 01:17:03 14.6 C 10.89 g/m*3 14.6 C 0 km/h
8 03-10-2010 01:29:03 14.7 C 10.58 g/m*3 14.7 C 0 km/h
9 03-10-2010 01:41:03 14.8 C 10.51 g/m*3 14.8 C 0 km/h
10 03-10-2010 01:53:03 14.9 C 10.45 g/m*3 14.9 C 0 km/h
11 03-10-2010 02:05:03 15 C 10.26 g/m*3 15 C 0 km/h
12 03-10-2010 02:17:03 14.8 C 10.39 g/m*3 14.8 C 0 km/h
13 03-10-2010 02:29:03 14.6 C 10.39 g/m*3 14.6 C 0 km/h
14 03-10-2010 02:41:03 14.4 C 10.26 g/m*3 14.4 C 0 km/h
15 03-10-2010 02:53:03 14.1 C 10.32 g/m*3 14.1 C 0 km/h
16 03-10-2010 03:05:03 14 C 10.37 g/m*3 14 C 0 km/h
17 03-10-2010 03:17:03 13.8 C 10.48 g/m*3 13.8 C 0 km/h
18 03-10-2010 03:29:04 13.8 C 10.6 g/m*3 13.8 C 0 km/h
19 03-10-2010 03:41:04 13.9 C 10.67 g/m*3 13.9 C 0 km/h
20 03-10-2010 03:53:04 14.1 C 10.8 g/m*3 14.1 C 0 km/h
21 03-10-2010 04:05:04 14 C 10.74 g/m*3 14 C 0 km/h
22 03-10-2010 04:17:04 14.1 C 10.68 g/m*3 14.1 C 0 km/h
23 03-10-2010 04:29:04 14 C 10.61 g/m*3 14 C 0 km/h
24 03-10-2010 04:41:04 14 C 10.49 g/m*3 14 C 0 km/h
25 03-10-2010 04:53:04 14.3 C 10.57 g/m*3 14.3 C 0 km/h
Sensor: Nr:Datum:Temp:Abs-Feuchte:Windchill:Wind:
Aussen-T/F 26 03-10-2010 05:05:04 14.3 C 10.44 g/m*3 14.3 C 0 km/h
27 03-10-2010 05:17:04 14.4 C 10.38 g/m*3 14.4 C 0 km/h
28 03-10-2010 05:29:04 14.4 C 10.38 g/m*3 14.4 C 0 km/h
29 03-10-2010 05:41:04 14.2 C 10.26 g/m*3 14.2 C 0 km/h
30 03-10-2010 05:53:04 14 C 10.25 g/m*3 14 C 0 km/h
31 03-10-2010 06:05:04 13.8 C 10.37 g/m*3 13.8 C 0 km/h
32 03-10-2010 06:17:04 13.5 C 10.18 g/m*3 13.5 C 0 km/h
33 03-10-2010 06:29:04 13.4 C 10.23 g/m*3 13.4 C 0 km/h
34 03-10-2010 06:41:04 13.3 C 10.17 g/m*3 13.3 C 0 km/h
35 03-10-2010 06:53:04 13.3 C 10.28 g/m*3 13.3 C 0 km/h
36 03-10-2010 07:05:04 13.3 C 10.28 g/m*3 13.3 C 0 km/h
37 03-10-2010 07:17:04 13.4 C 10.46 g/m*3 13.4 C 0 km/h
38 03-10-2010 07:29:04 13.4 C 10.46 g/m*3 13.4 C 0 km/h
39 03-10-2010 07:41:05 13.5 C 10.53 g/m*3 13.5 C 0 km/h
40 03-10-2010 07:53:02 13.5 C 10.41 g/m*3 13.5 C 0 km/h
41 03-10-2010 08:05:01 13.7 C 10.42 g/m*3 13.7 C 0 km/h
42 03-10-2010 08:17:02 13.9 C 10.43 g/m*3 13.9 C 0 km/h
43 03-10-2010 08:29:02 13.9 C 10.43 g/m*3 13.9 C 0 km/h
44 03-10-2010 08:41:01 14.1 C 10.44 g/m*3 14.1 C 0 km/h
45 03-10-2010 08:53:03 14.3 C 10.32 g/m*3 14.3 C 0 km/h
46 03-10-2010 09:05:02 14.8 C 10.26 g/m*3 14.8 C 0 km/h
47 03-10-2010 09:17:02 15 C 10 g/m*3 15 C 0 km/h
48 03-10-2010 09:29:03 15.1 C 9.93 g/m*3 15.1 C 0 km/h
49 03-10-2010 09:41:02 15.2 C 10.12 g/m*3 15.2 C 0 km/h
50 03-10-2010 09:53:02 15.5 C 10.05 g/m*3 15.5 C 0 km/h
Sensor: Nr:Datum:Temp:Abs-Feuchte:Windchill:Wind:
Aussen-T/F 51 03-10-2010 10:05:02 16.2 C 10.2 g/m*3 16.2 C 0 km/h
52 03-10-2010 10:17:02 16.9 C 9.92 g/m*3 16.9 C 0 km/h
53 03-10-2010 10:29:03 17 C 9.69 g/m*3 17 C 0 km/h
54 03-10-2010 10:41:01 17 C 9.84 g/m*3 17 C 0 km/h
55 03-10-2010 10:53:02 16.8 C 9.87 g/m*3 16.8 C 0 km/h
56 03-10-2010 11:05:01 17.2 C 9.81 g/m*3 17.2 C 0 km/h
57 03-10-2010 11:17:02 17.6 C 10.35 g/m*3 17.6 C 0 km/h
58 03-10-2010 11:29:02 17.9 C 10.23 g/m*3 17.9 C 0 km/h
59 03-10-2010 11:41:02 18.5 C 9.97 g/m*3 18.5 C 0 km/h
60 03-10-2010 11:53:02 19.5 C 10.24 g/m*3 19.5 C 0 km/h
61 03-10-2010 12:05:03 19.7 C 9.85 g/m*3 19.7 C 0 km/h
62 03-10-2010 12:17:02 19.7 C 10.02 g/m*3 19.7 C 0 km/h
63 03-10-2010 12:29:02 19.3 C 9.45 g/m*3 19.3 C 0 km/h
64 03-10-2010 12:41:02 19.7 C 9.68 g/m*3 19.7 C 0 km/h
65 03-10-2010 12:53:01 20 C 9.68 g/m*3 20 C 0 km/h
66 03-10-2010 13:05:02 20.7 C 9.9 g/m*3 20.7 C 0 km/h
67 03-10-2010 13:17:01 21.1 C 9.58 g/m*3 21.1 C 0 km/h
68 03-10-2010 13:29:01 21.5 C 9.62 g/m*3 21.5 C 0 km/h
69 03-10-2010 13:41:01 21.7 C 8.97 g/m*3 21.7 C 0 km/h
70 03-10-2010 13:53:01 21.8 C 9.02 g/m*3 21.8 C 0 km/h
71 03-10-2010 14:05:02 22.2 C 8.83 g/m*3 22.2 C 0 km/h
72 03-10-2010 14:17:01 22.7 C 9.5 g/m*3 22.7 C 0 km/h
73 03-10-2010 14:29:01 23.2 C 9.15 g/m*3 23.2 C 0 km/h
74 03-10-2010 14:41:01 24.4 C 9.12 g/m*3 24.4 C 0 km/h
75 03-10-2010 14:53:01 24.2 C 8.8 g/m*3 24.2 C 0 km/h
Sensor: Nr:Datum:Temp:Abs-Feuchte:Windchill:Wind:
Aussen-T/F 76 03-10-2010 15:05:02 24.4 C 8.68 g/m*3 24.4 C 0 km/h
77 03-10-2010 15:17:02 24.4 C 8.68 g/m*3 24.4 C 0 km/h
78 03-10-2010 15:29:02 24.5 C 8.5 g/m*3 24.5 C 0 km/h
79 03-10-2010 15:41:01 24.9 C 8.7 g/m*3 24.9 C 0 km/h
80 03-10-2010 15:53:02 25.4 C 8.48 g/m*3 25.4 C 0 km/h
81 03-10-2010 16:05:01 24.6 C 8.33 g/m*3 24.6 C 0 km/h
82 03-10-2010 16:17:02 24.7 C 8.37 g/m*3 24.7 C 0 km/h
83 03-10-2010 16:29:02 25.1 C 8.57 g/m*3 25.1 C 0 km/h
84 03-10-2010 16:41:01 25.4 C 8.95 g/m*3 25.4 C 0 km/h
85 03-10-2010 16:53:03 25.8 C 9.15 g/m*3 25.8 C 0 km/h
86 03-10-2010 17:05:02 26.1 C 9.3 g/m*3 26.1 C 0 km/h
87 03-10-2010 17:17:02 25.6 C 9.05 g/m*3 25.6 C 0 km/h
88 03-10-2010 17:29:02 25.6 C 9.52 g/m*3 25.6 C 0 km/h
89 03-10-2010 17:41:03 24.4 C 9.35 g/m*3 24.4 C 0 km/h
90 03-10-2010 17:53:02 24.4 C 9.57 g/m*3 24.4 C 0 km/h
91 03-10-2010 18:05:01 23.6 C 10.21 g/m*3 23.6 C 0 km/h
92 03-10-2010 18:17:02 22.5 C 10.39 g/m*3 22.5 C 0 km/h
93 03-10-2010 18:29:02 21.4 C 10.5 g/m*3 21.4 C 0 km/h
94 03-10-2010 18:41:02 20.4 C 10.61 g/m*3 20.4 C 0 km/h
95 03-10-2010 18:53:02 19.8 C 10.76 g/m*3 19.8 C 0 km/h
96 03-10-2010 19:05:03 19.3 C 10.95 g/m*3 19.3 C 0 km/h
97 03-10-2010 19:17:02 19 C 10.76 g/m*3 19 C 0 km/h
98 03-10-2010 19:29:02 18.9 C 10.85 g/m*3 18.9 C 0 km/h
99 03-10-2010 19:41:02 18.4 C 10.85 g/m*3 18.4 C 0 km/h
100 03-10-2010 19:53:01 18.3 C 10.79 g/m*3 18.3 C 0 km/h
Sensor: Nr:Datum:Temp:Abs-Feuchte:Windchill:Wind:
Aussen-T/F 101 03-10-2010 20:05:02 18.1 C 10.82 g/m*3 18.1 C 0 km/h
102 03-10-2010 20:17:01 18.5 C 10.92 g/m*3 18.5 C 0 km/h
103 03-10-2010 20:29:01 18.4 C 10.85 g/m*3 18.4 C 0 km/h
104 03-10-2010 20:41:02 18.4 C 10.85 g/m*3 18.4 C 0 km/h
105 03-10-2010 20:53:01 18.3 C 10.94 g/m*3 18.3 C 0 km/h
106 03-10-2010 21:05:02 18.3 C 10.94 g/m*3 18.3 C 0 km/h
107 03-10-2010 21:17:02 18.1 C 10.97 g/m*3 18.1 C 0 km/h
108 03-10-2010 21:29:02 17.9 C 11.15 g/m*3 17.9 C 0 km/h
109 03-10-2010 21:41:02 17.8 C 11.08 g/m*3 17.8 C 0 km/h
110 03-10-2010 21:53:01 17.7 C 11.01 g/m*3 17.7 C 0 km/h
111 03-10-2010 22:05:01 17.6 C 11.1 g/m*3 17.6 C 0 km/h
112 03-10-2010 22:17:02 17.5 C 11.03 g/m*3 17.5 C 0 km/h
113 03-10-2010 22:29:02 17.5 C 10.88 g/m*3 17.5 C 0 km/h
114 03-10-2010 22:41:01 17.6 C 10.8 g/m*3 17.6 C 0 km/h
115 03-10-2010 22:53:02 17.6 C 10.5 g/m*3 17.6 C 0 km/h
116 03-10-2010 23:05:01 17.5 C 10.44 g/m*3 17.5 C 0 km/h
117 03-10-2010 23:18:06 17.6 C 10.5 g/m*3 17.6 C 0 km/h
118 03-10-2010 23:30:07 17.6 C 10.35 g/m*3 17.6 C 0 km/h
119 03-10-2010 23:42:07 17.6 C 10.2 g/m*3 17.6 C 0 km/h
120 03-10-2010 23:54:07 17.5 C 10.14 g/m*3 17.5 C 0 km/h

Legende:
   Min
   Max


Maximal/Minimal-Werte vom 03.10.2010 - 03.10.2010

Sensor Min Max Avg
Temp
(Aussen-T/F)
13.3 °C
03-10-2010  06:41:04
26.1 °C
03-10-2010  17:05:02
17.84 °C
Abs-Feuchte
(Aussen-T/F)
8.33 g/m*3
03-10-2010  16:05:01
11.19 g/m*3
03-10-2010  00:53:03
10.09 g/m*3
Windchill
(Aussen-T/F)
13.3 C
03-10-2010  06:41:04
26.1 C
03-10-2010  17:05:02
17.69 C

Die Daten stammen von einer Davis Vantage Pro 2 Wetter-Station und werden unter Linux mit der Software wview2wettercgi und aufbereitet. Alle Angaben erfolgen ohne Gewähr für ihre Vollständigkeit oder Richtigkeit.
Kontakt: Rainer Krienke krienke@uni-koblenz.de . Meine Webseiten an der Uni Koblenz oder privat.
Version: $Revision: 0.78 $